createdAt,value
2022-10-24T00:01:52.702Z,9.73
2022-10-24T00:04:40.726Z,8.60
2022-10-24T00:07:26.320Z,9.80
2022-10-24T00:10:13.458Z,9.75
2022-10-24T00:12:59.464Z,10.00
2022-10-24T00:15:49.940Z,9.77
2022-10-24T00:18:36.398Z,8.73
2022-10-24T00:21:22.726Z,8.13
2022-10-24T00:24:09.106Z,8.47
2022-10-24T00:26:55.098Z,11.45
2022-10-24T00:29:41.041Z,8.60
2022-10-24T00:32:26.771Z,11.13
2022-10-24T00:35:12.728Z,10.48
2022-10-24T00:37:58.741Z,11.70
2022-10-24T00:40:44.861Z,10.15
2022-10-24T00:43:30.903Z,9.52
2022-10-24T00:46:18.074Z,10.63
2022-10-24T00:49:03.833Z,12.52
2022-10-24T00:51:54.017Z,8.65
2022-10-24T00:54:41.156Z,8.98
2022-10-24T00:57:47.950Z,9.10
2022-10-24T01:00:34.812Z,9.65
2022-10-24T01:03:20.799Z,8.63
2022-10-24T01:06:24.940Z,10.02
2022-10-24T01:09:48.007Z,9.65
2022-10-24T01:12:53.061Z,9.52
2022-10-24T01:15:46.882Z,10.05
2022-10-24T01:18:42.980Z,9.90
2022-10-24T01:21:53.285Z,10.60
2022-10-24T01:25:07.274Z,10.50
2022-10-24T01:28:14.161Z,10.02
2022-10-24T01:31:10.954Z,10.57
2022-10-24T01:34:07.745Z,11.18
2022-10-24T01:37:08.072Z,9.18
2022-10-24T01:40:00.160Z,11.25
2022-10-24T01:42:47.797Z,8.65
2022-10-24T01:45:37.964Z,11.00
2022-10-24T01:48:26.124Z,10.15
2022-10-24T01:51:15.190Z,11.23
2022-10-24T01:54:04.158Z,11.07
2022-10-24T01:56:52.230Z,10.05
2022-10-24T01:59:45.821Z,9.73
2022-10-24T02:02:40.036Z,10.15
2022-10-24T02:05:40.772Z,9.90
2022-10-24T02:08:32.677Z,10.70
2022-10-24T02:11:18.674Z,10.68
2022-10-24T02:14:28.140Z,12.55
2022-10-24T02:17:14.592Z,11.27
2022-10-24T02:20:01.442Z,11.45
2022-10-24T02:22:58.342Z,10.95
2022-10-24T02:25:51.409Z,9.90
2022-10-24T02:28:43.722Z,11.02
2022-10-24T02:31:34.788Z,11.97
2022-10-24T02:34:24.323Z,11.95
2022-10-24T02:37:12.571Z,9.77
2022-10-24T02:40:00.607Z,10.73
2022-10-24T02:42:48.998Z,11.85
2022-10-24T02:45:37.080Z,13.75
2022-10-24T02:48:28.692Z,10.38
2022-10-24T02:51:16.987Z,15.52
2022-10-24T02:54:05.359Z,12.07
2022-10-24T02:56:59.724Z,9.77
2022-10-24T02:59:45.806Z,10.57
2022-10-24T03:02:32.519Z,10.10
2022-10-24T03:05:18.384Z,10.90
2022-10-24T03:08:04.569Z,9.57
2022-10-24T03:10:50.473Z,9.90
2022-10-24T03:13:36.716Z,12.48
2022-10-24T03:16:23.042Z,12.35
2022-10-24T03:19:08.898Z,9.70
2022-10-24T03:21:54.629Z,12.20
2022-10-24T03:24:44.442Z,11.52
2022-10-24T03:27:40.173Z,11.40
2022-10-24T03:30:25.742Z,10.18
2022-10-24T03:33:12.238Z,10.50
2022-10-24T03:35:58.069Z,10.98
2022-10-24T03:38:43.810Z,10.88
2022-10-24T03:41:29.789Z,9.90
2022-10-24T03:44:16.551Z,10.80
2022-10-24T03:47:02.776Z,11.95
2022-10-24T03:49:48.255Z,12.13
2022-10-24T03:52:33.981Z,10.88
2022-10-24T03:55:20.447Z,12.63
2022-10-24T03:58:06.225Z,10.00
2022-10-24T04:00:52.579Z,12.90
2022-10-24T04:03:38.278Z,12.43
2022-10-24T04:06:24.958Z,10.63
2022-10-24T04:09:11.275Z,11.57
2022-10-24T04:11:57.913Z,12.55
2022-10-24T04:14:43.783Z,11.18
2022-10-24T04:17:29.838Z,12.45
2022-10-24T04:20:19.784Z,13.15
2022-10-24T04:23:05.609Z,10.80
2022-10-24T04:25:51.890Z,11.50
2022-10-24T04:28:37.864Z,11.52
2022-10-24T04:31:23.919Z,12.27
2022-10-24T04:34:10.119Z,11.80
2022-10-24T04:36:55.812Z,11.27
2022-10-24T04:39:41.204Z,12.00
2022-10-24T04:42:26.707Z,11.77
2022-10-24T04:45:12.609Z,12.65
2022-10-24T04:47:59.104Z,13.70
2022-10-24T04:50:46.554Z,13.07
2022-10-24T04:53:32.500Z,13.55
2022-10-24T04:56:19.046Z,11.60
2022-10-24T04:59:05.233Z,12.20
2022-10-24T05:01:50.915Z,14.75
2022-10-24T05:04:36.644Z,12.52
2022-10-24T05:07:22.846Z,10.23
2022-10-24T05:10:09.593Z,12.57
2022-10-24T05:12:55.763Z,11.90
2022-10-24T05:15:42.884Z,13.07
2022-10-24T05:18:28.471Z,13.77
2022-10-24T05:21:14.073Z,10.55
2022-10-24T05:23:59.942Z,10.45
2022-10-24T05:26:45.527Z,12.73
2022-10-24T05:29:31.984Z,9.80
2022-10-24T05:32:18.451Z,10.68
2022-10-24T05:35:04.487Z,10.67
2022-10-24T05:37:50.301Z,12.32
2022-10-24T05:40:35.729Z,10.13
2022-10-24T05:43:21.435Z,10.90
2022-10-24T05:46:07.359Z,11.18
2022-10-24T05:48:53.206Z,9.73
2022-10-24T05:51:39.598Z,11.15
2022-10-24T05:54:33.218Z,9.73
2022-10-24T05:57:29.989Z,14.65
2022-10-24T06:00:17.730Z,10.90
2022-10-24T06:03:03.500Z,9.68
2022-10-24T06:05:49.946Z,10.73
2022-10-24T06:08:37.962Z,12.15
2022-10-24T06:11:24.344Z,10.73
2022-10-24T06:14:10.685Z,16.20
2022-10-24T06:16:57.274Z,11.68
2022-10-24T06:19:43.986Z,14.15
2022-10-24T06:22:30.088Z,11.77
2022-10-24T06:25:17.490Z,10.80
2022-10-24T06:28:03.854Z,15.32
2022-10-24T06:30:50.772Z,11.43
2022-10-24T06:33:37.006Z,10.55
2022-10-24T06:36:25.816Z,12.50
2022-10-24T06:39:14.171Z,10.50
2022-10-24T06:42:01.638Z,11.88
2022-10-24T06:44:47.517Z,14.32
2022-10-24T06:47:34.114Z,10.38
2022-10-24T06:50:20.343Z,10.63
2022-10-24T06:53:09.001Z,13.75
2022-10-24T06:55:54.675Z,14.02
2022-10-24T06:58:40.784Z,13.88
2022-10-24T07:01:28.134Z,12.38
2022-10-24T07:04:14.404Z,12.52
2022-10-24T07:07:00.478Z,11.63
2022-10-24T07:09:51.579Z,16.90
2022-10-24T07:12:37.466Z,17.67
2022-10-24T07:15:23.680Z,14.82
2022-10-24T07:18:14.360Z,14.68
2022-10-24T07:21:06.327Z,16.60
2022-10-24T07:23:53.357Z,17.60
2022-10-24T07:26:39.923Z,15.73
2022-10-24T07:29:26.363Z,20.20
2022-10-24T07:32:12.673Z,18.08
2022-10-24T07:34:58.957Z,17.13
2022-10-24T07:37:45.016Z,15.73
2022-10-24T07:40:31.711Z,19.17
2022-10-24T07:43:18.620Z,20.58
2022-10-24T07:46:12.354Z,21.20
2022-10-24T07:48:59.006Z,16.20
2022-10-24T07:51:44.859Z,19.92
2022-10-24T07:54:33.122Z,18.83
2022-10-24T07:57:22.774Z,15.50
2022-10-24T08:00:09.900Z,13.23
2022-10-24T08:02:58.922Z,15.82
2022-10-24T08:05:48.390Z,15.00
2022-10-24T08:08:37.924Z,13.52
2022-10-24T08:11:26.709Z,18.67
2022-10-24T08:14:13.149Z,14.88
2022-10-24T08:16:59.453Z,13.57
2022-10-24T08:19:45.518Z,15.93
2022-10-24T08:22:31.057Z,14.68
2022-10-24T08:25:16.765Z,13.00
2022-10-24T08:28:05.213Z,14.45
2022-10-24T08:30:59.110Z,17.48
2022-10-24T08:33:46.016Z,14.68
2022-10-24T08:36:35.926Z,16.65
2022-10-24T08:39:21.628Z,15.85
2022-10-24T08:42:11.892Z,13.93
2022-10-24T08:44:57.485Z,12.68
2022-10-24T08:48:01.027Z,13.10
2022-10-24T08:50:52.224Z,12.63
2022-10-24T08:53:40.049Z,15.15
2022-10-24T08:56:29.897Z,16.55
2022-10-24T08:59:15.729Z,17.83
2022-10-24T09:02:13.672Z,16.70
2022-10-24T09:05:26.033Z,14.25
2022-10-24T09:08:23.910Z,14.48
2022-10-24T09:11:23.396Z,15.25
2022-10-24T09:14:15.579Z,16.13
2022-10-24T09:17:42.545Z,18.60
2022-10-24T09:20:33.698Z,15.80
2022-10-24T09:23:22.000Z,15.45
2022-10-24T09:26:14.520Z,16.75
2022-10-24T09:29:00.655Z,14.13
2022-10-24T09:31:49.417Z,13.70
2022-10-24T09:34:35.358Z,15.60
2022-10-24T09:37:35.135Z,14.68
2022-10-24T09:40:34.104Z,12.57
2022-10-24T09:43:26.117Z,21.80
2022-10-24T09:46:34.905Z,19.95
2022-10-24T09:49:22.999Z,14.60
2022-10-24T09:52:22.729Z,11.23
2022-10-24T09:55:21.409Z,10.52
2022-10-24T09:58:19.473Z,14.13
2022-10-24T10:01:06.336Z,12.65
2022-10-24T10:04:08.798Z,13.52
2022-10-24T10:06:56.293Z,16.77
2022-10-24T10:09:56.518Z,11.23
2022-10-24T10:12:47.478Z,12.75
2022-10-24T10:15:46.885Z,12.15
2022-10-24T10:18:38.801Z,13.70
2022-10-24T10:21:25.262Z,11.88
2022-10-24T10:24:25.934Z,13.88
2022-10-24T10:27:32.224Z,13.55
2022-10-24T10:30:21.334Z,10.00
2022-10-24T10:36:30.492Z,11.20
2022-10-24T10:39:45.208Z,11.95
2022-10-24T10:42:34.687Z,12.27
2022-10-24T10:45:45.343Z,11.43
2022-10-24T10:48:41.265Z,10.98
2022-10-24T10:51:50.231Z,12.32
2022-10-24T10:55:01.734Z,12.43
2022-10-24T10:57:59.445Z,12.73
2022-10-24T11:01:34.552Z,12.15
2022-10-24T11:04:54.360Z,13.30
2022-10-24T11:07:51.204Z,14.50
2022-10-24T11:10:50.050Z,12.10
2022-10-24T11:13:57.349Z,10.65
2022-10-24T11:16:44.823Z,10.50
2022-10-24T11:19:41.122Z,9.63
2022-10-24T11:22:31.039Z,12.68
2022-10-24T11:25:28.970Z,17.33
2022-10-24T11:28:26.377Z,10.80
2022-10-24T11:31:23.607Z,11.43
2022-10-24T11:34:21.152Z,13.63
2022-10-24T11:37:19.159Z,11.90
2022-10-24T11:40:20.381Z,16.80
2022-10-24T11:43:27.520Z,15.40
2022-10-24T11:46:25.137Z,13.52
2022-10-24T11:49:20.722Z,13.38
2022-10-24T11:52:39.811Z,12.95
2022-10-24T11:55:38.883Z,15.27
2022-10-24T11:58:28.508Z,13.13
2022-10-24T12:01:40.190Z,12.13
2022-10-24T12:04:36.162Z,8.65
2022-10-24T12:07:56.227Z,10.73
2022-10-24T12:10:58.803Z,10.98
2022-10-24T12:14:23.298Z,11.45
2022-10-24T12:17:45.388Z,10.88
2022-10-24T12:20:32.809Z,10.50
2022-10-24T12:23:27.506Z,14.63
2022-10-24T12:26:24.906Z,9.00
2022-10-24T12:29:24.380Z,10.10
2022-10-24T12:32:44.866Z,11.43
2022-10-24T12:35:47.281Z,9.73
2022-10-24T12:38:32.722Z,11.65
2022-10-24T12:41:33.549Z,10.68
2022-10-24T12:44:34.736Z,11.23
2022-10-24T12:47:47.739Z,9.85
2022-10-24T12:50:34.250Z,8.43
2022-10-24T12:53:31.861Z,10.27
2022-10-24T12:59:30.289Z,8.05
2022-10-24T13:02:16.190Z,11.23
2022-10-24T13:05:11.987Z,11.32
2022-10-24T13:08:23.326Z,11.77
2022-10-24T13:11:27.635Z,7.73
2022-10-24T13:14:39.744Z,13.35
2022-10-24T13:17:41.353Z,6.40
2022-10-24T13:20:30.886Z,7.32
2022-10-24T13:23:28.342Z,9.48
2022-10-24T13:26:41.430Z,11.32
2022-10-24T13:29:27.152Z,6.63
2022-10-24T13:32:14.533Z,9.13
2022-10-24T13:35:04.034Z,11.38
2022-10-24T13:37:57.728Z,8.32
2022-10-24T13:40:46.264Z,10.55
2022-10-24T13:43:32.392Z,8.30
2022-10-24T13:47:09.034Z,13.32
2022-10-24T13:50:06.650Z,8.82
2022-10-24T13:52:57.803Z,9.13
2022-10-24T13:55:49.485Z,8.43
2022-10-24T13:58:44.189Z,8.65
2022-10-24T14:01:31.482Z,13.52
2022-10-24T14:04:17.464Z,8.02
2022-10-24T14:07:10.109Z,7.18
2022-10-24T14:10:02.414Z,10.93
2022-10-24T14:12:51.953Z,8.68
2022-10-24T14:15:37.861Z,9.73
2022-10-24T14:18:24.410Z,6.38
2022-10-24T14:21:22.505Z,11.98
2022-10-24T14:24:13.697Z,11.20
2022-10-24T14:27:00.268Z,8.95
2022-10-24T14:30:07.016Z,8.88
2022-10-24T14:33:14.568Z,10.73
2022-10-24T14:36:02.976Z,8.13
2022-10-24T14:38:55.265Z,12.98
2022-10-24T14:41:42.786Z,10.10
2022-10-24T14:44:29.146Z,11.00
2022-10-24T14:47:35.718Z,8.30
2022-10-24T14:50:44.778Z,6.55
2022-10-24T14:53:31.016Z,8.95
2022-10-24T14:56:27.406Z,10.52
2022-10-24T14:59:35.846Z,10.38
2022-10-24T15:02:30.226Z,7.60
2022-10-24T15:05:19.883Z,7.30
2022-10-24T15:08:21.562Z,8.93
2022-10-24T15:11:19.271Z,11.77
2022-10-24T15:14:07.247Z,7.53
2022-10-24T15:16:54.236Z,10.10
2022-10-24T15:19:40.325Z,8.73
2022-10-24T15:22:35.156Z,12.43
2022-10-24T15:25:39.304Z,10.40
2022-10-24T15:29:08.739Z,12.77
2022-10-24T15:31:55.207Z,7.68
2022-10-24T15:34:41.317Z,11.20
2022-10-24T15:37:28.539Z,9.77
2022-10-24T15:40:22.223Z,9.18
2022-10-24T15:43:12.666Z,12.85
2022-10-24T15:45:58.606Z,7.78
2022-10-24T15:48:44.954Z,12.13
2022-10-24T15:51:30.851Z,8.80
2022-10-24T15:54:18.560Z,13.02
2022-10-24T15:57:05.545Z,8.80
2022-10-24T15:59:51.755Z,9.68
2022-10-24T16:02:37.295Z,10.55
2022-10-24T16:05:37.341Z,12.82
2022-10-24T16:08:24.083Z,10.63
2022-10-24T16:11:12.163Z,11.10
2022-10-24T16:13:59.022Z,11.40
2022-10-24T16:16:45.249Z,10.10
2022-10-24T16:19:31.178Z,15.10
2022-10-24T16:22:17.424Z,9.35
2022-10-24T16:25:03.249Z,10.98
2022-10-24T16:27:49.817Z,15.60
2022-10-24T16:30:39.182Z,12.18
2022-10-24T16:33:24.846Z,10.57
2022-10-24T16:36:11.113Z,12.52
2022-10-24T16:38:57.269Z,10.73
2022-10-24T16:41:54.442Z,14.18
2022-10-24T16:44:41.188Z,11.93
2022-10-24T16:47:26.968Z,12.37
2022-10-24T16:50:16.857Z,10.73
2022-10-24T16:53:05.237Z,12.00
2022-10-24T16:55:55.163Z,13.68
2022-10-24T16:58:41.950Z,11.35
2022-10-24T17:01:28.073Z,11.20
2022-10-24T17:04:13.946Z,13.82
2022-10-24T17:06:59.633Z,10.68
2022-10-24T17:09:45.544Z,13.45
2022-10-24T17:12:32.329Z,12.55
2022-10-24T17:15:21.943Z,11.93
2022-10-24T17:18:09.068Z,12.15
2022-10-24T17:21:00.208Z,12.07
2022-10-24T17:23:47.959Z,13.13
2022-10-24T17:26:34.018Z,11.70
2022-10-24T17:29:26.239Z,14.73
2022-10-24T17:32:13.685Z,12.82
2022-10-24T17:35:00.352Z,14.27
2022-10-24T17:38:08.142Z,11.40
2022-10-24T17:40:56.671Z,18.35
2022-10-24T17:43:42.490Z,11.90
2022-10-24T17:46:28.514Z,13.18
2022-10-24T17:49:20.843Z,12.00
2022-10-24T17:52:08.202Z,9.93
2022-10-24T17:54:53.923Z,13.73
2022-10-24T17:57:39.279Z,12.50
2022-10-24T18:00:24.825Z,12.43
2022-10-24T18:03:11.553Z,15.75
2022-10-24T18:06:02.932Z,11.43
2022-10-24T18:08:52.113Z,17.27
2022-10-24T18:11:38.828Z,14.45
2022-10-24T18:14:24.720Z,13.27
2022-10-24T18:17:11.171Z,13.80
2022-10-24T18:19:57.459Z,15.32
2022-10-24T18:22:44.171Z,15.05
2022-10-24T18:25:30.257Z,12.50
2022-10-24T18:28:16.590Z,17.40
2022-10-24T18:31:13.241Z,14.00
2022-10-24T18:34:04.845Z,14.95
2022-10-24T18:36:54.294Z,15.82
2022-10-24T18:39:40.850Z,15.40
2022-10-24T18:42:45.595Z,15.80
2022-10-24T18:45:33.051Z,14.70
2022-10-24T18:48:20.006Z,12.20
2022-10-24T18:51:12.229Z,12.77
2022-10-24T18:54:03.364Z,13.25
2022-10-24T18:56:50.523Z,13.82
2022-10-24T18:59:36.830Z,13.32
2022-10-24T19:02:54.857Z,12.50
2022-10-24T19:05:47.984Z,14.30
2022-10-24T19:08:36.221Z,18.52
2022-10-24T19:11:24.242Z,15.40
2022-10-24T19:14:10.231Z,17.60
2022-10-24T19:16:59.163Z,13.75
2022-10-24T19:19:44.902Z,11.55
2022-10-24T19:22:31.408Z,13.13
2022-10-24T19:25:17.972Z,18.30
2022-10-24T19:28:04.408Z,18.45
2022-10-24T19:30:50.776Z,19.90
2022-10-24T19:33:36.796Z,12.85
2022-10-24T19:36:22.998Z,13.27
2022-10-24T19:39:09.560Z,16.75
2022-10-24T19:41:55.319Z,15.48
2022-10-24T19:44:43.676Z,13.05
2022-10-24T19:47:30.160Z,14.48
2022-10-24T19:50:15.913Z,18.05
2022-10-24T19:53:01.439Z,14.18
2022-10-24T19:55:47.123Z,15.43
2022-10-24T19:58:33.562Z,14.32
2022-10-24T20:01:22.445Z,15.25
2022-10-24T20:04:08.802Z,18.15
2022-10-24T20:06:55.115Z,19.38
2022-10-24T20:09:40.705Z,15.05
2022-10-24T20:12:26.688Z,15.48
2022-10-24T20:15:13.914Z,15.20
2022-10-24T20:17:59.804Z,13.23
2022-10-24T20:20:45.426Z,14.63
2022-10-24T20:23:32.105Z,14.60
2022-10-24T20:26:27.764Z,18.17
2022-10-24T20:29:15.318Z,15.57
2022-10-24T20:32:01.118Z,14.37
2022-10-24T20:34:47.131Z,16.25
2022-10-24T20:37:32.737Z,11.35
2022-10-24T20:40:18.705Z,15.05
2022-10-24T20:43:07.265Z,12.77
2022-10-24T20:45:53.206Z,12.77
2022-10-24T20:48:39.361Z,15.02
2022-10-24T20:51:25.082Z,15.43
2022-10-24T20:54:11.397Z,12.88
2022-10-24T20:56:57.395Z,16.08
2022-10-24T20:59:43.141Z,16.17
2022-10-24T21:02:29.439Z,12.95
2022-10-24T21:05:15.089Z,14.18
2022-10-24T21:08:01.157Z,16.08
2022-10-24T21:10:48.291Z,16.13
2022-10-24T21:13:34.212Z,14.60
2022-10-24T21:16:19.852Z,14.00
2022-10-24T21:19:05.361Z,17.45
2022-10-24T21:21:51.406Z,21.50
2022-10-24T21:24:37.499Z,16.98
2022-10-24T21:27:23.543Z,13.93
2022-10-24T21:30:13.649Z,13.77
2022-10-24T21:33:00.445Z,14.73
2022-10-24T21:35:46.376Z,17.10
2022-10-24T21:38:31.914Z,18.10
2022-10-24T21:41:19.097Z,14.77
2022-10-24T21:44:05.054Z,14.90
2022-10-24T21:46:54.502Z,14.88
2022-10-24T21:49:40.305Z,13.70
2022-10-24T21:52:26.242Z,13.65
2022-10-24T21:55:12.040Z,16.75
2022-10-24T21:57:57.499Z,15.38
2022-10-24T22:00:43.353Z,14.48
2022-10-24T22:03:29.965Z,17.67
2022-10-24T22:06:18.572Z,18.67
2022-10-24T22:09:06.644Z,14.65
2022-10-24T22:11:54.826Z,16.35
2022-10-24T22:14:40.982Z,18.85
2022-10-24T22:17:27.341Z,14.45
2022-10-24T22:20:13.259Z,15.38
2022-10-24T22:22:59.125Z,15.80
2022-10-24T22:25:45.336Z,13.10
2022-10-24T22:28:32.144Z,15.73
2022-10-24T22:31:18.588Z,16.40
2022-10-24T22:34:05.256Z,16.95
2022-10-24T22:36:57.190Z,14.32
2022-10-24T22:39:43.750Z,16.50
2022-10-24T22:42:29.459Z,15.68
2022-10-24T22:45:15.700Z,15.10
2022-10-24T22:48:01.796Z,15.93
2022-10-24T22:50:55.964Z,14.90
2022-10-24T22:53:43.989Z,15.27
2022-10-24T22:56:34.064Z,16.63
2022-10-24T22:59:20.491Z,18.17
2022-10-24T23:02:28.133Z,16.67
2022-10-24T23:06:07.465Z,13.38
2022-10-24T23:08:53.328Z,14.75
2022-10-24T23:11:39.641Z,13.98
2022-10-24T23:14:26.437Z,14.32
2022-10-24T23:17:17.983Z,15.02
2022-10-24T23:20:04.318Z,13.23
2022-10-24T23:22:58.184Z,14.23
2022-10-24T23:26:12.684Z,15.20
2022-10-24T23:29:08.879Z,16.85
2022-10-24T23:31:55.136Z,12.73
2022-10-24T23:34:41.965Z,13.88
2022-10-24T23:37:34.441Z,13.85
2022-10-24T23:40:34.448Z,14.13
2022-10-24T23:43:23.171Z,10.32
2022-10-24T23:46:35.834Z,16.52
2022-10-24T23:49:41.109Z,14.15
2022-10-24T23:52:35.949Z,15.85
2022-10-24T23:55:22.195Z,15.25
2022-10-24T23:58:12.129Z,17.85
